sensor_id;sensor_type;location;lat;lon;timestamp;P1;durP1;ratioP1;P2;durP2;ratioP2
38605;SDS011;24365;48.446;8.850;2023-06-19T00:00:49;7.47;;;6.13;;
38605;SDS011;24365;48.446;8.850;2023-06-19T00:05:51;7.78;;;6.70;;
38605;SDS011;24365;48.446;8.850;2023-06-19T00:10:52;6.88;;;5.70;;
38605;SDS011;24365;48.446;8.850;2023-06-19T00:15:53;8.80;;;6.10;;
38605;SDS011;24365;48.446;8.850;2023-06-19T00:20:54;6.82;;;5.68;;
38605;SDS011;24365;48.446;8.850;2023-06-19T00:25:57;7.70;;;6.43;;
38605;SDS011;24365;48.446;8.850;2023-06-19T00:31:01;7.68;;;6.75;;
38605;SDS011;24365;48.446;8.850;2023-06-19T00:36:08;7.95;;;7.15;;
38605;SDS011;24365;48.446;8.850;2023-06-19T00:41:12;7.25;;;6.55;;
38605;SDS011;24365;48.446;8.850;2023-06-19T00:46:16;7.72;;;6.68;;
38605;SDS011;24365;48.446;8.850;2023-06-19T00:51:17;8.65;;;6.50;;
38605;SDS011;24365;48.446;8.850;2023-06-19T00:56:19;9.40;;;7.13;;
38605;SDS011;24365;48.446;8.850;2023-06-19T01:01:20;8.65;;;7.15;;
38605;SDS011;24365;48.446;8.850;2023-06-19T01:06:25;8.10;;;6.60;;
38605;SDS011;24365;48.446;8.850;2023-06-19T01:11:51;9.88;;;7.72;;
38605;SDS011;24365;48.446;8.850;2023-06-19T01:16:55;8.05;;;5.95;;
38605;SDS011;24365;48.446;8.850;2023-06-19T01:28:45;7.50;;;5.97;;
38605;SDS011;24365;48.446;8.850;2023-06-19T01:34:07;8.82;;;5.93;;
38605;SDS011;24365;48.446;8.850;2023-06-19T01:45:28;8.65;;;5.88;;
38605;SDS011;24365;48.446;8.850;2023-06-19T01:50:30;7.53;;;5.97;;
38605;SDS011;24365;48.446;8.850;2023-06-19T01:55:31;7.82;;;5.95;;
38605;SDS011;24365;48.446;8.850;2023-06-19T02:00:32;7.13;;;6.35;;
38605;SDS011;24365;48.446;8.850;2023-06-19T02:05:35;5.85;;;4.78;;
38605;SDS011;24365;48.446;8.850;2023-06-19T02:10:39;5.80;;;4.43;;
38605;SDS011;24365;48.446;8.850;2023-06-19T02:15:40;9.27;;;5.25;;
38605;SDS011;24365;48.446;8.850;2023-06-19T02:25:42;5.83;;;5.23;;
38605;SDS011;24365;48.446;8.850;2023-06-19T02:30:43;4.78;;;4.28;;
38605;SDS011;24365;48.446;8.850;2023-06-19T02:35:44;7.38;;;4.35;;
38605;SDS011;24365;48.446;8.850;2023-06-19T02:40:45;5.53;;;4.97;;
38605;SDS011;24365;48.446;8.850;2023-06-19T02:45:46;5.22;;;4.38;;
38605;SDS011;24365;48.446;8.850;2023-06-19T02:50:47;5.63;;;4.80;;
38605;SDS011;24365;48.446;8.850;2023-06-19T02:55:48;5.15;;;4.65;;
38605;SDS011;24365;48.446;8.850;2023-06-19T03:00:49;6.25;;;5.65;;
38605;SDS011;24365;48.446;8.850;2023-06-19T03:05:51;6.38;;;5.15;;
38605;SDS011;24365;48.446;8.850;2023-06-19T03:10:52;7.53;;;5.40;;
38605;SDS011;24365;48.446;8.850;2023-06-19T03:15:54;6.53;;;4.57;;
38605;SDS011;24365;48.446;8.850;2023-06-19T03:20:55;6.65;;;4.85;;
38605;SDS011;24365;48.446;8.850;2023-06-19T03:25:58;7.95;;;5.65;;
38605;SDS011;24365;48.446;8.850;2023-06-19T03:31:00;5.35;;;4.72;;
38605;SDS011;24365;48.446;8.850;2023-06-19T03:36:01;6.13;;;4.15;;
38605;SDS011;24365;48.446;8.850;2023-06-19T03:41:14;4.28;;;3.80;;
38605;SDS011;24365;48.446;8.850;2023-06-19T03:46:16;5.80;;;3.72;;
38605;SDS011;24365;48.446;8.850;2023-06-19T03:51:17;5.70;;;4.25;;
38605;SDS011;24365;48.446;8.850;2023-06-19T03:56:18;6.05;;;4.10;;
38605;SDS011;24365;48.446;8.850;2023-06-19T04:01:19;6.18;;;4.10;;
38605;SDS011;24365;48.446;8.850;2023-06-19T04:06:22;5.82;;;3.88;;
38605;SDS011;24365;48.446;8.850;2023-06-19T04:11:23;4.53;;;3.72;;
38605;SDS011;24365;48.446;8.850;2023-06-19T04:16:25;3.75;;;3.30;;
38605;SDS011;24365;48.446;8.850;2023-06-19T04:21:26;3.83;;;3.42;;
38605;SDS011;24365;48.446;8.850;2023-06-19T04:26:28;5.82;;;3.97;;
38605;SDS011;24365;48.446;8.850;2023-06-19T04:31:29;5.55;;;3.58;;
38605;SDS011;24365;48.446;8.850;2023-06-19T04:41:32;5.53;;;3.47;;
38605;SDS011;24365;48.446;8.850;2023-06-19T04:46:34;4.47;;;3.20;;
38605;SDS011;24365;48.446;8.850;2023-06-19T04:56:36;6.10;;;4.37;;
38605;SDS011;24365;48.446;8.850;2023-06-19T05:01:37;7.10;;;3.35;;
38605;SDS011;24365;48.446;8.850;2023-06-19T05:06:40;5.65;;;3.75;;
38605;SDS011;24365;48.446;8.850;2023-06-19T05:11:43;4.22;;;3.67;;
38605;SDS011;24365;48.446;8.850;2023-06-19T05:16:44;4.55;;;3.83;;
38605;SDS011;24365;48.446;8.850;2023-06-19T05:21:46;3.65;;;3.08;;
38605;SDS011;24365;48.446;8.850;2023-06-19T05:26:47;3.60;;;3.10;;
38605;SDS011;24365;48.446;8.850;2023-06-19T05:31:48;6.05;;;3.60;;
38605;SDS011;24365;48.446;8.850;2023-06-19T05:36:49;4.22;;;3.53;;
38605;SDS011;24365;48.446;8.850;2023-06-19T05:41:50;4.78;;;4.03;;
38605;SDS011;24365;48.446;8.850;2023-06-19T05:46:51;5.55;;;4.10;;
38605;SDS011;24365;48.446;8.850;2023-06-19T05:51:52;5.07;;;4.00;;
38605;SDS011;24365;48.446;8.850;2023-06-19T05:56:53;3.92;;;3.50;;
38605;SDS011;24365;48.446;8.850;2023-06-19T06:01:55;5.05;;;3.83;;
38605;SDS011;24365;48.446;8.850;2023-06-19T06:06:56;5.43;;;4.03;;
38605;SDS011;24365;48.446;8.850;2023-06-19T06:11:57;4.05;;;3.65;;
38605;SDS011;24365;48.446;8.850;2023-06-19T06:16:58;4.30;;;3.70;;
38605;SDS011;24365;48.446;8.850;2023-06-19T06:21:59;5.35;;;3.80;;
38605;SDS011;24365;48.446;8.850;2023-06-19T06:27:00;4.40;;;3.63;;
38605;SDS011;24365;48.446;8.850;2023-06-19T06:32:04;5.53;;;3.90;;
38605;SDS011;24365;48.446;8.850;2023-06-19T06:37:06;6.15;;;3.35;;
38605;SDS011;24365;48.446;8.850;2023-06-19T06:42:07;7.05;;;4.25;;
38605;SDS011;24365;48.446;8.850;2023-06-19T06:47:08;7.45;;;4.47;;
38605;SDS011;24365;48.446;8.850;2023-06-19T06:52:09;5.97;;;4.15;;
38605;SDS011;24365;48.446;8.850;2023-06-19T06:57:10;6.30;;;3.53;;
38605;SDS011;24365;48.446;8.850;2023-06-19T07:02:11;4.70;;;4.18;;
38605;SDS011;24365;48.446;8.850;2023-06-19T07:07:13;5.38;;;4.13;;
38605;SDS011;24365;48.446;8.850;2023-06-19T07:12:14;4.25;;;3.70;;
38605;SDS011;24365;48.446;8.850;2023-06-19T07:17:15;4.53;;;3.90;;
38605;SDS011;24365;48.446;8.850;2023-06-19T07:27:18;4.17;;;3.77;;
38605;SDS011;24365;48.446;8.850;2023-06-19T07:42:21;4.23;;;3.83;;
38605;SDS011;24365;48.446;8.850;2023-06-19T07:47:23;4.28;;;3.83;;
38605;SDS011;24365;48.446;8.850;2023-06-19T07:52:27;9.75;;;3.95;;
38605;SDS011;24365;48.446;8.850;2023-06-19T07:57:28;5.38;;;3.83;;
38605;SDS011;24365;48.446;8.850;2023-06-19T08:02:29;3.25;;;2.95;;
38605;SDS011;24365;48.446;8.850;2023-06-19T08:07:30;4.53;;;3.05;;
38605;SDS011;24365;48.446;8.850;2023-06-19T08:12:31;3.33;;;3.03;;
38605;SDS011;24365;48.446;8.850;2023-06-19T08:17:32;2.88;;;2.50;;
38605;SDS011;24365;48.446;8.850;2023-06-19T08:22:33;3.08;;;2.80;;
38605;SDS011;24365;48.446;8.850;2023-06-19T08:27:44;3.13;;;2.78;;
38605;SDS011;24365;48.446;8.850;2023-06-19T08:33:20;3.75;;;3.30;;
38605;SDS011;24365;48.446;8.850;2023-06-19T08:43:22;5.82;;;2.95;;
38605;SDS011;24365;48.446;8.850;2023-06-19T08:48:23;3.22;;;2.90;;
38605;SDS011;24365;48.446;8.850;2023-06-19T08:53:25;3.92;;;3.28;;
38605;SDS011;24365;48.446;8.850;2023-06-19T08:58:27;3.72;;;3.10;;
38605;SDS011;24365;48.446;8.850;2023-06-19T09:03:28;4.40;;;3.25;;
38605;SDS011;24365;48.446;8.850;2023-06-19T09:08:29;3.90;;;3.40;;
38605;SDS011;24365;48.446;8.850;2023-06-19T09:13:33;3.67;;;3.15;;
38605;SDS011;24365;48.446;8.850;2023-06-19T09:18:46;3.60;;;3.10;;
38605;SDS011;24365;48.446;8.850;2023-06-19T09:23:51;4.75;;;3.28;;
38605;SDS011;24365;48.446;8.850;2023-06-19T09:29:09;5.28;;;3.53;;
38605;SDS011;24365;48.446;8.850;2023-06-19T09:34:18;4.05;;;3.65;;
38605;SDS011;24365;48.446;8.850;2023-06-19T09:39:19;3.22;;;2.92;;
38605;SDS011;24365;48.446;8.850;2023-06-19T09:44:25;4.32;;;3.30;;
38605;SDS011;24365;48.446;8.850;2023-06-19T09:49:29;4.15;;;3.28;;
38605;SDS011;24365;48.446;8.850;2023-06-19T09:54:34;3.22;;;2.67;;
38605;SDS011;24365;48.446;8.850;2023-06-19T09:59:37;2.17;;;1.90;;
38605;SDS011;24365;48.446;8.850;2023-06-19T10:04:44;2.45;;;2.20;;
38605;SDS011;24365;48.446;8.850;2023-06-19T10:20:29;2.47;;;1.90;;
38605;SDS011;24365;48.446;8.850;2023-06-19T10:25:40;2.45;;;2.25;;
38605;SDS011;24365;48.446;8.850;2023-06-19T10:30:42;2.97;;;2.30;;
38605;SDS011;24365;48.446;8.850;2023-06-19T10:35:43;4.55;;;2.97;;
38605;SDS011;24365;48.446;8.850;2023-06-19T10:40:45;5.15;;;2.60;;
38605;SDS011;24365;48.446;8.850;2023-06-19T10:45:46;3.95;;;2.38;;
38605;SDS011;24365;48.446;8.850;2023-06-19T10:50:48;5.97;;;3.17;;
38605;SDS011;24365;48.446;8.850;2023-06-19T10:55:54;3.88;;;2.58;;
38605;SDS011;24365;48.446;8.850;2023-06-19T11:00:59;3.15;;;2.78;;
38605;SDS011;24365;48.446;8.850;2023-06-19T11:06:00;2.40;;;2.20;;
38605;SDS011;24365;48.446;8.850;2023-06-19T11:11:01;3.10;;;2.60;;
38605;SDS011;24365;48.446;8.850;2023-06-19T11:16:03;2.92;;;2.60;;
38605;SDS011;24365;48.446;8.850;2023-06-19T11:21:05;3.03;;;2.72;;
38605;SDS011;24365;48.446;8.850;2023-06-19T11:26:06;3.47;;;3.17;;
38605;SDS011;24365;48.446;8.850;2023-06-19T11:31:10;3.42;;;3.13;;
38605;SDS011;24365;48.446;8.850;2023-06-19T11:36:11;3.53;;;2.92;;
38605;SDS011;24365;48.446;8.850;2023-06-19T11:41:13;2.92;;;2.70;;
38605;SDS011;24365;48.446;8.850;2023-06-19T11:46:30;3.47;;;2.83;;
38605;SDS011;24365;48.446;8.850;2023-06-19T11:51:33;2.90;;;2.60;;
38605;SDS011;24365;48.446;8.850;2023-06-19T11:56:35;4.55;;;3.25;;
38605;SDS011;24365;48.446;8.850;2023-06-19T12:01:38;5.00;;;3.20;;
38605;SDS011;24365;48.446;8.850;2023-06-19T12:06:39;5.55;;;3.78;;
38605;SDS011;24365;48.446;8.850;2023-06-19T12:11:41;3.22;;;2.92;;
38605;SDS011;24365;48.446;8.850;2023-06-19T12:16:42;6.20;;;3.55;;
38605;SDS011;24365;48.446;8.850;2023-06-19T12:21:43;4.05;;;3.70;;
38605;SDS011;24365;48.446;8.850;2023-06-19T12:26:44;5.38;;;3.65;;
38605;SDS011;24365;48.446;8.850;2023-06-19T12:31:46;5.30;;;3.70;;
38605;SDS011;24365;48.446;8.850;2023-06-19T12:36:47;4.40;;;4.00;;
38605;SDS011;24365;48.446;8.850;2023-06-19T12:41:52;5.15;;;4.00;;
38605;SDS011;24365;48.446;8.850;2023-06-19T12:46:53;5.93;;;3.80;;
38605;SDS011;24365;48.446;8.850;2023-06-19T12:51:54;5.47;;;3.63;;
38605;SDS011;24365;48.446;8.850;2023-06-19T12:57:00;4.38;;;3.72;;
38605;SDS011;24365;48.446;8.850;2023-06-19T13:02:06;4.40;;;4.00;;
38605;SDS011;24365;48.446;8.850;2023-06-19T13:07:07;4.65;;;3.42;;
38605;SDS011;24365;48.446;8.850;2023-06-19T13:12:12;3.80;;;3.47;;
38605;SDS011;24365;48.446;8.850;2023-06-19T13:17:13;4.40;;;3.80;;
38605;SDS011;24365;48.446;8.850;2023-06-19T14:24:54;4.75;;;4.05;;
38605;SDS011;24365;48.446;8.850;2023-06-19T14:29:59;4.28;;;3.88;;
38605;SDS011;24365;48.446;8.850;2023-06-19T14:35:01;4.47;;;3.85;;
38605;SDS011;24365;48.446;8.850;2023-06-19T14:40:02;5.82;;;4.30;;
38605;SDS011;24365;48.446;8.850;2023-06-19T14:45:04;4.78;;;4.38;;
38605;SDS011;24365;48.446;8.850;2023-06-19T14:50:06;5.38;;;3.90;;
38605;SDS011;24365;48.446;8.850;2023-06-19T14:55:09;4.55;;;4.15;;
38605;SDS011;24365;48.446;8.850;2023-06-19T15:00:11;4.57;;;4.03;;
38605;SDS011;24365;48.446;8.850;2023-06-19T15:05:12;4.97;;;4.03;;
38605;SDS011;24365;48.446;8.850;2023-06-19T15:10:13;4.10;;;3.80;;
38605;SDS011;24365;48.446;8.850;2023-06-19T15:15:14;5.07;;;4.68;;
38605;SDS011;24365;48.446;8.850;2023-06-19T15:20:16;4.80;;;4.30;;
38605;SDS011;24365;48.446;8.850;2023-06-19T15:25:18;4.50;;;3.92;;
38605;SDS011;24365;48.446;8.850;2023-06-19T15:30:19;5.38;;;3.50;;
38605;SDS011;24365;48.446;8.850;2023-06-19T15:35:20;3.75;;;3.45;;
38605;SDS011;24365;48.446;8.850;2023-06-19T15:40:21;5.10;;;3.88;;
38605;SDS011;24365;48.446;8.850;2023-06-19T15:45:22;4.70;;;4.30;;
38605;SDS011;24365;48.446;8.850;2023-06-19T15:50:23;6.90;;;4.72;;
38605;SDS011;24365;48.446;8.850;2023-06-19T15:55:24;4.80;;;3.83;;
38605;SDS011;24365;48.446;8.850;2023-06-19T16:00:26;5.68;;;3.90;;
38605;SDS011;24365;48.446;8.850;2023-06-19T16:05:28;3.92;;;3.58;;
38605;SDS011;24365;48.446;8.850;2023-06-19T16:10:28;5.40;;;4.60;;
38605;SDS011;24365;48.446;8.850;2023-06-19T16:15:29;5.75;;;4.05;;
38605;SDS011;24365;48.446;8.850;2023-06-19T16:20:32;5.20;;;4.07;;
38605;SDS011;24365;48.446;8.850;2023-06-19T16:25:33;4.45;;;3.97;;
38605;SDS011;24365;48.446;8.850;2023-06-19T16:30:34;4.55;;;4.10;;
38605;SDS011;24365;48.446;8.850;2023-06-19T16:35:35;9.93;;;4.88;;
38605;SDS011;24365;48.446;8.850;2023-06-19T16:40:37;7.93;;;4.68;;
38605;SDS011;24365;48.446;8.850;2023-06-19T16:45:38;5.78;;;4.28;;
38605;SDS011;24365;48.446;8.850;2023-06-19T16:50:39;4.97;;;4.47;;
38605;SDS011;24365;48.446;8.850;2023-06-19T16:55:40;5.13;;;4.32;;
38605;SDS011;24365;48.446;8.850;2023-06-19T17:00:41;6.53;;;4.55;;
38605;SDS011;24365;48.446;8.850;2023-06-19T17:05:42;5.95;;;4.63;;
38605;SDS011;24365;48.446;8.850;2023-06-19T17:10:43;4.55;;;4.13;;
38605;SDS011;24365;48.446;8.850;2023-06-19T17:15:44;5.85;;;4.40;;
38605;SDS011;24365;48.446;8.850;2023-06-19T17:20:45;4.80;;;4.15;;
38605;SDS011;24365;48.446;8.850;2023-06-19T17:25:46;5.43;;;3.90;;
38605;SDS011;24365;48.446;8.850;2023-06-19T17:30:47;4.90;;;4.40;;
38605;SDS011;24365;48.446;8.850;2023-06-19T17:35:48;4.15;;;3.75;;
38605;SDS011;24365;48.446;8.850;2023-06-19T17:40:49;7.20;;;4.25;;
38605;SDS011;24365;48.446;8.850;2023-06-19T17:45:50;5.78;;;3.67;;
38605;SDS011;24365;48.446;8.850;2023-06-19T17:50:51;5.05;;;4.18;;
38605;SDS011;24365;48.446;8.850;2023-06-19T17:55:52;4.43;;;3.67;;
38605;SDS011;24365;48.446;8.850;2023-06-19T18:00:53;7.10;;;3.53;;
38605;SDS011;24365;48.446;8.850;2023-06-19T18:05:54;4.00;;;2.95;;
38605;SDS011;24365;48.446;8.850;2023-06-19T18:10:55;4.05;;;3.65;;
38605;SDS011;24365;48.446;8.850;2023-06-19T18:15:58;4.15;;;3.47;;
38605;SDS011;24365;48.446;8.850;2023-06-19T18:20:58;3.55;;;3.25;;
38605;SDS011;24365;48.446;8.850;2023-06-19T18:26:00;4.75;;;3.60;;
38605;SDS011;24365;48.446;8.850;2023-06-19T18:31:01;4.97;;;3.60;;
38605;SDS011;24365;48.446;8.850;2023-06-19T18:36:02;8.15;;;3.60;;
38605;SDS011;24365;48.446;8.850;2023-06-19T18:41:03;3.80;;;3.42;;
38605;SDS011;24365;48.446;8.850;2023-06-19T18:46:04;4.88;;;3.30;;
38605;SDS011;24365;48.446;8.850;2023-06-19T18:51:05;4.93;;;3.80;;
38605;SDS011;24365;48.446;8.850;2023-06-19T18:56:06;6.10;;;3.42;;
38605;SDS011;24365;48.446;8.850;2023-06-19T19:01:07;3.90;;;3.40;;
38605;SDS011;24365;48.446;8.850;2023-06-19T19:06:09;3.75;;;3.42;;
38605;SDS011;24365;48.446;8.850;2023-06-19T19:11:10;3.45;;;3.15;;
38605;SDS011;24365;48.446;8.850;2023-06-19T19:16:11;5.03;;;3.50;;
38605;SDS011;24365;48.446;8.850;2023-06-19T19:21:12;6.28;;;3.92;;
38605;SDS011;24365;48.446;8.850;2023-06-19T19:26:13;3.90;;;3.60;;
38605;SDS011;24365;48.446;8.850;2023-06-19T19:31:14;4.05;;;3.60;;
38605;SDS011;24365;48.446;8.850;2023-06-19T19:41:16;5.40;;;3.63;;
38605;SDS011;24365;48.446;8.850;2023-06-19T19:51:18;7.25;;;3.90;;
38605;SDS011;24365;48.446;8.850;2023-06-19T19:56:19;5.20;;;3.22;;
38605;SDS011;24365;48.446;8.850;2023-06-19T20:06:21;4.85;;;3.58;;
38605;SDS011;24365;48.446;8.850;2023-06-19T20:21:25;3.70;;;3.38;;
38605;SDS011;24365;48.446;8.850;2023-06-19T20:26:30;3.97;;;3.58;;
38605;SDS011;24365;48.446;8.850;2023-06-19T20:31:31;4.85;;;3.67;;
38605;SDS011;24365;48.446;8.850;2023-06-19T20:36:32;5.65;;;4.28;;
38605;SDS011;24365;48.446;8.850;2023-06-19T20:41:36;5.00;;;4.25;;
38605;SDS011;24365;48.446;8.850;2023-06-19T20:46:38;4.22;;;3.83;;
38605;SDS011;24365;48.446;8.850;2023-06-19T20:51:40;6.28;;;3.70;;
38605;SDS011;24365;48.446;8.850;2023-06-19T21:01:42;5.50;;;4.27;;
38605;SDS011;24365;48.446;8.850;2023-06-19T21:06:43;4.63;;;4.13;;
38605;SDS011;24365;48.446;8.850;2023-06-19T21:16:45;4.75;;;3.85;;
38605;SDS011;24365;48.446;8.850;2023-06-19T21:21:47;4.78;;;4.03;;
38605;SDS011;24365;48.446;8.850;2023-06-19T21:26:48;4.38;;;3.97;;
38605;SDS011;24365;48.446;8.850;2023-06-19T21:36:50;5.23;;;4.43;;
38605;SDS011;24365;48.446;8.850;2023-06-19T21:41:51;5.43;;;4.78;;
38605;SDS011;24365;48.446;8.850;2023-06-19T21:46:52;4.63;;;4.20;;
38605;SDS011;24365;48.446;8.850;2023-06-19T21:51:53;4.68;;;4.28;;
38605;SDS011;24365;48.446;8.850;2023-06-19T21:56:54;5.13;;;4.25;;
38605;SDS011;24365;48.446;8.850;2023-06-19T22:01:55;5.60;;;4.72;;
38605;SDS011;24365;48.446;8.850;2023-06-19T22:06:56;6.18;;;4.40;;
38605;SDS011;24365;48.446;8.850;2023-06-19T22:12:00;4.80;;;4.38;;
38605;SDS011;24365;48.446;8.850;2023-06-19T22:17:03;6.80;;;4.85;;
38605;SDS011;24365;48.446;8.850;2023-06-19T22:22:05;6.85;;;4.50;;
38605;SDS011;24365;48.446;8.850;2023-06-19T22:27:06;5.50;;;4.90;;
38605;SDS011;24365;48.446;8.850;2023-06-19T22:32:07;6.35;;;4.32;;
38605;SDS011;24365;48.446;8.850;2023-06-19T22:37:09;5.35;;;4.85;;
38605;SDS011;24365;48.446;8.850;2023-06-19T22:42:10;5.70;;;4.38;;
38605;SDS011;24365;48.446;8.850;2023-06-19T22:47:11;8.02;;;4.93;;
38605;SDS011;24365;48.446;8.850;2023-06-19T22:52:12;5.63;;;5.05;;
38605;SDS011;24365;48.446;8.850;2023-06-19T22:57:13;5.78;;;5.18;;
38605;SDS011;24365;48.446;8.850;2023-06-19T23:02:15;6.47;;;5.10;;
38605;SDS011;24365;48.446;8.850;2023-06-19T23:07:16;6.00;;;5.40;;
38605;SDS011;24365;48.446;8.850;2023-06-19T23:12:17;5.95;;;4.75;;
38605;SDS011;24365;48.446;8.850;2023-06-19T23:17:20;5.75;;;4.95;;
38605;SDS011;24365;48.446;8.850;2023-06-19T23:22:21;6.97;;;5.95;;
38605;SDS011;24365;48.446;8.850;2023-06-19T23:27:24;6.00;;;5.00;;
38605;SDS011;24365;48.446;8.850;2023-06-19T23:32:25;5.70;;;5.10;;
38605;SDS011;24365;48.446;8.850;2023-06-19T23:37:26;7.05;;;5.50;;
38605;SDS011;24365;48.446;8.850;2023-06-19T23:42:27;7.55;;;5.50;;
38605;SDS011;24365;48.446;8.850;2023-06-19T23:47:28;7.03;;;4.78;;
38605;SDS011;24365;48.446;8.850;2023-06-19T23:52:29;8.23;;;5.70;;
38605;SDS011;24365;48.446;8.850;2023-06-19T23:57:30;8.50;;;5.88;;
